createdAt,value
2022-09-14T00:00:13.824Z,16.30
2022-09-14T00:02:42.256Z,16.30
2022-09-14T00:05:10.712Z,16.10
2022-09-14T00:07:39.404Z,16.20
2022-09-14T00:10:07.390Z,16.20
2022-09-14T00:13:14.828Z,16.20
2022-09-14T00:20:32.957Z,16.10
2022-09-14T00:23:05.533Z,15.70
2022-09-14T00:25:34.540Z,15.60
2022-09-14T00:28:07.131Z,15.70
2022-09-14T00:30:41.606Z,15.60
2022-09-14T00:33:48.799Z,15.60
2022-09-14T00:36:25.474Z,15.50
2022-09-14T00:38:57.373Z,15.50
2022-09-14T00:41:32.025Z,15.50
2022-09-14T00:44:04.199Z,15.50
2022-09-14T00:46:37.551Z,15.50
2022-09-14T00:49:08.692Z,15.60
2022-09-14T00:51:39.262Z,15.50
2022-09-14T00:54:12.465Z,15.50
2022-09-14T00:56:49.537Z,15.20
2022-09-14T00:59:22.503Z,15.10
2022-09-14T01:01:54.713Z,15.00
2022-09-14T01:04:28.720Z,14.80
2022-09-14T01:07:07.019Z,14.80
2022-09-14T01:10:14.102Z,14.80
2022-09-14T01:13:01.162Z,14.70
2022-09-14T01:15:45.148Z,14.80
2022-09-14T01:18:40.039Z,14.80
2022-09-14T01:21:14.999Z,14.90
2022-09-14T01:23:43.872Z,14.90
2022-09-14T01:26:31.795Z,14.80
2022-09-14T01:33:46.683Z,14.70
2022-09-14T01:36:15.502Z,14.70
2022-09-14T01:38:51.237Z,14.60
2022-09-14T01:46:06.526Z,14.60
2022-09-14T01:48:37.149Z,14.50
2022-09-14T01:51:37.848Z,14.50
2022-09-14T01:54:13.656Z,14.60
2022-09-14T01:56:53.420Z,14.70
2022-09-14T02:08:02.548Z,14.40
2022-09-14T02:10:30.249Z,14.20
2022-09-14T02:12:58.679Z,14.20
2022-09-14T02:15:35.249Z,14.20
2022-09-14T02:22:57.108Z,14.10
2022-09-14T02:25:28.952Z,13.90
2022-09-14T02:27:57.059Z,14.00
2022-09-14T02:30:33.945Z,13.90
2022-09-14T02:33:19.215Z,13.90
2022-09-14T02:40:39.353Z,13.90
2022-09-14T02:43:26.960Z,13.90
2022-09-14T02:50:16.879Z,13.90
2022-09-14T02:52:50.901Z,13.80
2022-09-14T02:55:24.769Z,13.80
2022-09-14T02:58:16.100Z,13.70
2022-09-14T03:05:34.540Z,13.70
2022-09-14T03:08:45.087Z,13.60
2022-09-14T03:11:12.984Z,13.60
2022-09-14T03:18:32.158Z,13.60
2022-09-14T03:21:19.948Z,13.60
2022-09-14T03:23:48.489Z,13.60
2022-09-14T03:26:18.557Z,13.60
2022-09-14T03:28:51.890Z,13.60
2022-09-14T03:31:20.293Z,13.60
2022-09-14T03:33:53.802Z,13.60
2022-09-14T03:41:13.088Z,13.60
2022-09-14T03:44:13.337Z,13.60
2022-09-14T03:46:49.398Z,13.60
2022-09-14T03:49:17.030Z,13.70
2022-09-14T03:51:44.890Z,13.60
2022-09-14T03:54:12.962Z,13.60
2022-09-14T03:56:40.960Z,13.60
2022-09-14T03:59:17.395Z,13.60
2022-09-14T04:01:48.610Z,13.60
2022-09-14T04:04:49.635Z,13.60
2022-09-14T04:12:12.133Z,13.60
2022-09-14T04:15:14.138Z,13.70
2022-09-14T04:17:43.258Z,13.70
2022-09-14T04:20:15.004Z,13.70
2022-09-14T04:22:51.141Z,13.70
2022-09-14T04:25:20.949Z,13.80
2022-09-14T04:33:07.410Z,13.80
2022-09-14T04:41:30.784Z,13.70
2022-09-14T04:44:02.828Z,13.60
2022-09-14T04:46:32.258Z,13.60
2022-09-14T04:49:04.426Z,13.60
2022-09-14T04:52:05.251Z,13.60
2022-09-14T04:54:33.923Z,13.60
2022-09-14T04:57:02.041Z,13.60
2022-09-14T04:59:37.408Z,13.60
2022-09-14T05:02:05.808Z,13.60
2022-09-14T05:05:07.165Z,13.60
2022-09-14T05:07:35.253Z,13.70
2022-09-14T05:10:03.479Z,13.60
2022-09-14T05:12:33.191Z,13.60
2022-09-14T05:15:01.511Z,13.70
2022-09-14T05:17:29.736Z,13.70
2022-09-14T05:19:57.686Z,13.80
2022-09-14T05:27:01.000Z,13.70
2022-09-14T05:29:32.108Z,13.70
2022-09-14T05:32:03.940Z,13.70
2022-09-14T05:34:31.935Z,13.80
2022-09-14T05:37:04.160Z,13.80
2022-09-14T05:39:38.448Z,13.80
2022-09-14T05:42:08.460Z,13.90
2022-09-14T05:44:37.218Z,13.90
2022-09-14T05:47:05.200Z,14.00
2022-09-14T05:58:11.231Z,14.10
2022-09-14T06:06:07.700Z,14.20
2022-09-14T06:08:36.463Z,14.30
2022-09-14T06:11:11.034Z,14.30
2022-09-14T06:13:43.749Z,14.40
2022-09-14T06:16:13.944Z,14.50
2022-09-14T06:23:32.981Z,14.70
2022-09-14T06:30:45.147Z,14.70
2022-09-14T06:33:18.382Z,14.80
2022-09-14T06:36:20.110Z,15.00
2022-09-14T06:38:50.272Z,15.10
2022-09-14T06:41:58.783Z,15.20
2022-09-14T06:53:02.165Z,15.60
2022-09-14T06:55:30.859Z,15.80
2022-09-14T06:58:00.238Z,15.80
2022-09-14T07:04:39.050Z,16.10
2022-09-14T07:07:07.214Z,16.20
2022-09-14T07:09:36.820Z,16.20
2022-09-14T07:12:37.265Z,16.20
2022-09-14T07:15:06.788Z,16.20
2022-09-14T07:17:45.526Z,16.30
2022-09-14T07:20:19.447Z,16.40
2022-09-14T07:22:48.762Z,16.50
2022-09-14T07:25:16.700Z,16.60
2022-09-14T07:27:44.758Z,16.80
2022-09-14T07:30:12.793Z,16.80
2022-09-14T07:32:40.772Z,16.80
2022-09-14T07:35:08.790Z,16.80
2022-09-14T07:37:36.835Z,16.80
2022-09-14T07:40:37.538Z,16.80
2022-09-14T07:43:06.652Z,16.80
2022-09-14T07:45:36.119Z,16.80
2022-09-14T07:48:04.732Z,16.90
2022-09-14T07:50:33.060Z,17.00
2022-09-14T07:53:01.162Z,17.10
2022-09-14T07:55:29.144Z,17.20
2022-09-14T07:57:57.388Z,17.30
2022-09-14T08:00:26.248Z,17.30
2022-09-14T08:02:55.434Z,17.20
2022-09-14T08:05:26.671Z,17.40
2022-09-14T08:07:56.070Z,17.40
2022-09-14T08:10:25.606Z,17.50
2022-09-14T08:12:55.726Z,17.40
2022-09-14T08:15:28.266Z,17.40
2022-09-14T08:18:29.353Z,17.50
2022-09-14T08:21:05.058Z,17.60
2022-09-14T08:23:33.428Z,17.70
2022-09-14T08:26:05.226Z,17.80
2022-09-14T08:28:32.733Z,17.70
2022-09-14T08:31:04.859Z,17.70
2022-09-14T08:33:33.845Z,17.70
2022-09-14T08:36:01.377Z,17.70
2022-09-14T08:38:29.416Z,17.80
2022-09-14T08:41:07.858Z,17.70
2022-09-14T08:43:38.848Z,17.80
2022-09-14T08:46:10.655Z,17.70
2022-09-14T08:48:41.674Z,17.60
2022-09-14T08:52:28.642Z,17.40
2022-09-14T08:54:57.791Z,17.40
2022-09-14T08:57:31.286Z,17.60
2022-09-14T09:00:02.172Z,17.60
2022-09-14T09:02:29.867Z,17.50
2022-09-14T09:05:18.937Z,17.60
2022-09-14T09:07:56.931Z,17.60
2022-09-14T09:10:30.387Z,17.60
2022-09-14T09:12:59.877Z,17.50
2022-09-14T09:15:37.876Z,17.50
2022-09-14T09:18:13.592Z,17.40
2022-09-14T09:20:46.163Z,17.30
2022-09-14T09:23:13.585Z,17.30
2022-09-14T09:26:00.054Z,17.40
2022-09-14T09:28:31.610Z,17.40
2022-09-14T09:31:01.305Z,17.10
2022-09-14T09:33:45.661Z,17.20
2022-09-14T09:36:20.044Z,17.10
2022-09-14T09:38:47.503Z,17.10
2022-09-14T09:41:24.024Z,17.30
2022-09-14T09:44:02.371Z,17.40
2022-09-14T09:46:31.973Z,17.40
2022-09-14T09:49:03.539Z,17.40
2022-09-14T09:51:38.301Z,17.20
2022-09-14T09:54:13.142Z,17.20
2022-09-14T09:56:56.646Z,17.10
2022-09-14T09:59:27.689Z,17.10
2022-09-14T10:01:56.798Z,17.10
2022-09-14T10:04:28.860Z,17.20
2022-09-14T10:06:58.131Z,17.20
2022-09-14T10:09:36.660Z,17.30
2022-09-14T10:12:04.896Z,17.40
2022-09-14T10:14:37.738Z,17.50
2022-09-14T10:17:08.673Z,17.50
2022-09-14T10:19:46.811Z,17.50
2022-09-14T10:22:20.025Z,17.60
2022-09-14T10:24:56.685Z,17.70
2022-09-14T10:27:50.567Z,17.30
2022-09-14T10:30:20.023Z,17.30
2022-09-14T10:32:55.153Z,17.30
2022-09-14T10:35:48.081Z,17.10
2022-09-14T10:38:34.571Z,17.10
2022-09-14T10:41:14.683Z,17.20
2022-09-14T10:43:49.086Z,17.20
2022-09-14T10:46:20.848Z,17.30
2022-09-14T10:49:17.779Z,17.40
2022-09-14T10:51:56.226Z,17.40
2022-09-14T10:54:41.268Z,17.40
2022-09-14T10:57:28.081Z,17.60
2022-09-14T11:00:15.925Z,17.40
2022-09-14T11:02:56.463Z,17.40
2022-09-14T11:05:30.390Z,17.50
2022-09-14T11:08:16.606Z,17.70
2022-09-14T11:10:44.557Z,17.70
2022-09-14T11:13:31.131Z,17.80
2022-09-14T11:16:05.007Z,17.90
2022-09-14T11:18:55.843Z,17.90
2022-09-14T11:21:52.617Z,17.70
2022-09-14T11:24:35.114Z,17.60
2022-09-14T11:27:15.781Z,17.80
2022-09-14T11:29:54.281Z,18.00
2022-09-14T11:32:25.179Z,18.00
2022-09-14T11:34:57.884Z,18.00
2022-09-14T11:37:32.037Z,18.00
2022-09-14T11:40:11.475Z,18.10
2022-09-14T11:42:52.347Z,18.00
2022-09-14T11:45:24.991Z,18.10
2022-09-14T11:47:58.177Z,18.20
2022-09-14T11:50:28.551Z,18.40
2022-09-14T11:53:07.844Z,18.40
2022-09-14T11:55:36.563Z,18.40
2022-09-14T11:58:25.565Z,18.30
2022-09-14T12:01:03.170Z,18.20
2022-09-14T12:04:23.068Z,18.40
2022-09-14T12:06:52.222Z,18.40
2022-09-14T12:09:21.369Z,17.90
2022-09-14T12:11:51.399Z,17.70
2022-09-14T12:14:28.917Z,17.80
2022-09-14T12:20:33.221Z,17.80
2022-09-14T12:23:30.054Z,18.00
2022-09-14T12:26:00.399Z,18.00
2022-09-14T12:28:37.796Z,18.20
2022-09-14T12:31:05.496Z,18.10
2022-09-14T12:33:33.987Z,18.10
2022-09-14T12:36:02.045Z,18.10
2022-09-14T12:38:29.929Z,18.20
2022-09-14T12:40:59.021Z,18.20
2022-09-14T12:43:33.392Z,18.20
2022-09-14T12:46:10.748Z,18.20
2022-09-14T12:48:46.173Z,18.20
2022-09-14T12:51:21.720Z,18.20
2022-09-14T12:54:02.299Z,18.20
2022-09-14T12:56:49.169Z,18.20
2022-09-14T12:59:33.607Z,18.20
2022-09-14T13:02:15.522Z,18.20
2022-09-14T13:05:16.880Z,18.00
2022-09-14T13:07:46.104Z,17.90
2022-09-14T13:10:29.083Z,17.90
2022-09-14T13:12:59.160Z,17.80
2022-09-14T13:20:22.629Z,17.80
2022-09-14T13:22:51.072Z,17.70
2022-09-14T13:25:33.151Z,17.80
2022-09-14T13:28:02.936Z,17.80
2022-09-14T13:30:33.289Z,17.80
2022-09-14T13:33:01.457Z,17.80
2022-09-14T13:35:31.962Z,17.70
2022-09-14T13:38:06.212Z,17.60
2022-09-14T13:40:41.125Z,17.60
2022-09-14T13:43:09.096Z,17.60
2022-09-14T13:45:39.494Z,17.60
2022-09-14T13:48:08.960Z,17.60
2022-09-14T13:50:41.410Z,17.60
2022-09-14T13:53:30.482Z,17.60
2022-09-14T13:56:16.041Z,17.70
2022-09-14T13:58:45.679Z,17.60
2022-09-14T14:01:22.797Z,17.60
2022-09-14T14:03:50.824Z,17.70
2022-09-14T14:06:27.737Z,17.70
2022-09-14T14:09:14.703Z,17.70
2022-09-14T14:11:55.569Z,17.80
2022-09-14T14:14:30.888Z,17.70
2022-09-14T14:17:14.188Z,17.60
2022-09-14T14:19:44.137Z,17.60
2022-09-14T14:22:28.730Z,17.60
2022-09-14T14:25:14.746Z,17.60
2022-09-14T14:27:45.461Z,17.60
2022-09-14T14:30:20.395Z,17.70
2022-09-14T14:32:50.913Z,17.70
2022-09-14T14:35:22.679Z,17.70
2022-09-14T14:37:51.481Z,17.70
2022-09-14T14:40:20.176Z,17.60
2022-09-14T14:42:49.455Z,17.60
2022-09-14T14:45:20.411Z,17.60
2022-09-14T14:47:54.921Z,17.40
2022-09-14T14:50:26.727Z,17.30
2022-09-14T14:53:01.491Z,17.40
2022-09-14T14:55:33.301Z,17.50
2022-09-14T14:58:02.725Z,17.50
2022-09-14T15:00:32.378Z,17.60
2022-09-14T15:03:00.667Z,17.60
2022-09-14T15:05:29.031Z,17.60
2022-09-14T15:07:57.511Z,17.50
2022-09-14T15:10:26.612Z,17.40
2022-09-14T15:12:55.137Z,17.40
2022-09-14T15:15:32.553Z,17.30
2022-09-14T15:18:01.251Z,17.20
2022-09-14T15:20:35.758Z,17.20
2022-09-14T15:23:04.769Z,17.10
2022-09-14T15:25:40.610Z,17.00
2022-09-14T15:28:09.025Z,16.90
2022-09-14T15:30:38.810Z,16.90
2022-09-14T15:33:07.938Z,16.90
2022-09-14T15:35:43.302Z,16.90
2022-09-14T15:38:17.627Z,16.80
2022-09-14T15:40:50.100Z,16.80
2022-09-14T15:43:26.336Z,16.80
2022-09-14T15:45:54.476Z,16.70
2022-09-14T15:48:22.593Z,16.60
2022-09-14T15:50:50.732Z,16.50
2022-09-14T15:53:19.022Z,16.40
2022-09-14T15:55:47.587Z,16.40
2022-09-14T15:58:16.076Z,16.40
2022-09-14T16:00:45.761Z,16.50
2022-09-14T16:03:14.757Z,16.50
2022-09-14T16:05:42.587Z,16.60
2022-09-14T16:08:15.368Z,16.60
2022-09-14T16:10:56.689Z,16.50
2022-09-14T16:13:57.981Z,16.60
2022-09-14T16:16:25.855Z,16.50
2022-09-14T16:18:54.197Z,16.60
2022-09-14T16:21:24.124Z,16.50
2022-09-14T16:23:58.105Z,16.60
2022-09-14T16:26:28.269Z,16.50
2022-09-14T16:28:58.569Z,16.50
2022-09-14T16:31:32.135Z,16.50
2022-09-14T16:34:02.255Z,16.50
2022-09-14T16:36:36.310Z,16.40
2022-09-14T16:39:06.963Z,16.20
2022-09-14T16:41:36.421Z,16.10
2022-09-14T16:44:05.686Z,16.00
2022-09-14T16:46:34.509Z,16.10
2022-09-14T16:49:03.883Z,16.10
2022-09-14T16:51:36.047Z,16.10
2022-09-14T16:54:07.633Z,16.10
2022-09-14T16:56:37.454Z,16.10
2022-09-14T16:59:05.583Z,16.10
2022-09-14T17:01:35.073Z,16.10
2022-09-14T17:04:08.565Z,16.10
2022-09-14T17:06:37.619Z,16.10
2022-09-14T17:09:14.475Z,16.20
2022-09-14T17:11:43.037Z,16.20
2022-09-14T17:14:16.950Z,16.20
2022-09-14T17:16:44.833Z,16.20
2022-09-14T17:19:16.341Z,16.10
2022-09-14T17:21:45.283Z,16.20
2022-09-14T17:24:14.179Z,16.20
2022-09-14T17:26:42.902Z,16.10
2022-09-14T17:29:11.439Z,16.10
2022-09-14T17:31:40.530Z,16.10
2022-09-14T17:34:09.097Z,16.10
2022-09-14T17:36:48.131Z,16.10
2022-09-14T17:39:17.048Z,15.90
2022-09-14T17:41:44.903Z,15.60
2022-09-14T17:44:14.121Z,15.70
2022-09-14T17:46:51.101Z,15.70
2022-09-14T17:49:22.010Z,15.70
2022-09-14T17:51:51.965Z,15.80
2022-09-14T17:54:20.135Z,15.80
2022-09-14T17:56:48.850Z,15.80
2022-09-14T17:59:20.561Z,15.70
2022-09-14T18:01:49.389Z,15.70
2022-09-14T18:04:18.136Z,15.70
2022-09-14T18:06:47.850Z,15.60
2022-09-14T18:09:24.781Z,15.60
2022-09-14T18:11:56.394Z,15.60
2022-09-14T18:14:24.921Z,15.60
2022-09-14T18:17:00.453Z,15.60
2022-09-14T18:19:28.619Z,15.60
2022-09-14T18:22:29.153Z,15.60
2022-09-14T18:24:57.748Z,15.40
2022-09-14T18:27:26.513Z,15.20
2022-09-14T18:29:56.764Z,15.10
2022-09-14T18:32:24.959Z,15.00
2022-09-14T18:34:56.413Z,15.10
2022-09-14T18:47:08.633Z,15.30
2022-09-14T18:49:37.248Z,15.40
2022-09-14T18:52:05.895Z,15.30
2022-09-14T18:54:34.627Z,15.40
2022-09-14T18:57:02.605Z,15.20
2022-09-14T18:59:30.415Z,15.20
2022-09-14T19:02:05.453Z,15.10
2022-09-14T19:05:05.263Z,15.10
2022-09-14T19:07:39.318Z,15.00
2022-09-14T19:10:11.500Z,15.10
2022-09-14T19:12:39.989Z,15.10
2022-09-14T19:15:09.603Z,15.10
2022-09-14T19:17:37.472Z,15.20
2022-09-14T19:20:06.917Z,15.20
2022-09-14T19:22:38.423Z,15.20
2022-09-14T19:25:08.058Z,15.20
2022-09-14T19:27:36.115Z,15.10
2022-09-14T19:30:06.481Z,15.10
2022-09-14T19:32:34.574Z,15.00
2022-09-14T19:35:02.897Z,15.00
2022-09-14T19:37:31.124Z,15.10
2022-09-14T19:39:59.530Z,15.00
2022-09-14T19:42:27.648Z,14.90
2022-09-14T19:44:55.482Z,14.80
2022-09-14T19:47:27.389Z,14.80
2022-09-14T19:49:59.163Z,14.70
2022-09-14T19:52:26.918Z,14.70
2022-09-14T19:54:54.485Z,14.70
2022-09-14T19:57:29.873Z,14.60
2022-09-14T19:59:59.887Z,14.50
2022-09-14T20:02:28.584Z,14.50
2022-09-14T20:05:00.986Z,14.50
2022-09-14T20:07:28.661Z,14.50
2022-09-14T20:09:58.022Z,14.40
2022-09-14T20:12:28.062Z,14.50
2022-09-14T20:14:56.342Z,14.50
2022-09-14T20:17:24.290Z,14.30
2022-09-14T20:19:52.537Z,14.30
2022-09-14T20:22:22.205Z,14.20
2022-09-14T20:24:50.979Z,14.20
2022-09-14T20:27:21.593Z,14.20
2022-09-14T20:29:50.125Z,14.00
2022-09-14T20:32:20.239Z,14.00
2022-09-14T20:34:49.109Z,14.00
2022-09-14T20:37:18.067Z,13.90
2022-09-14T20:39:47.937Z,13.90
2022-09-14T20:42:16.608Z,13.90
2022-09-14T20:44:45.374Z,13.90
2022-09-14T20:47:14.451Z,13.80
2022-09-14T20:49:42.338Z,13.80
2022-09-14T20:52:10.588Z,13.80
2022-09-14T20:54:42.044Z,13.70
2022-09-14T20:57:09.895Z,13.70
2022-09-14T20:59:37.748Z,13.60
2022-09-14T21:02:05.941Z,13.60
2022-09-14T21:04:34.187Z,13.50
2022-09-14T21:07:02.564Z,13.60
2022-09-14T21:09:31.949Z,13.60
2022-09-14T21:12:00.111Z,13.70
2022-09-14T21:14:28.526Z,13.70
2022-09-14T21:17:04.020Z,13.70
2022-09-14T21:19:31.797Z,13.60
2022-09-14T21:21:59.888Z,13.50
2022-09-14T21:24:27.785Z,13.50
2022-09-14T21:26:56.622Z,13.50
2022-09-14T21:29:33.387Z,13.40
2022-09-14T21:32:04.523Z,13.40
2022-09-14T21:34:42.818Z,13.40
2022-09-14T21:37:11.108Z,13.40
2022-09-14T21:39:40.490Z,13.40
2022-09-14T21:42:12.267Z,13.30
2022-09-14T21:44:39.891Z,13.30
2022-09-14T21:47:07.442Z,13.30
2022-09-14T21:49:35.038Z,13.30
2022-09-14T21:52:02.931Z,13.20
2022-09-14T21:54:31.301Z,13.30
2022-09-14T21:57:00.021Z,13.20
2022-09-14T21:59:59.945Z,13.20
2022-09-14T22:02:28.057Z,13.20
2022-09-14T22:04:55.957Z,13.20
2022-09-14T22:07:23.766Z,13.20
2022-09-14T22:09:52.809Z,13.30
2022-09-14T22:12:20.438Z,13.30
2022-09-14T22:14:55.879Z,13.30
2022-09-14T22:17:24.373Z,13.20
2022-09-14T22:19:55.205Z,13.20
2022-09-14T22:22:22.921Z,13.10
2022-09-14T22:24:50.981Z,13.10
2022-09-14T22:27:18.842Z,13.10
2022-09-14T22:29:46.711Z,13.20
2022-09-14T22:32:14.987Z,13.20
2022-09-14T22:34:47.613Z,13.20
2022-09-14T22:37:17.419Z,13.20
2022-09-14T22:39:51.970Z,13.20
2022-09-14T22:42:24.070Z,13.10
2022-09-14T22:44:51.785Z,13.10
2022-09-14T22:47:19.802Z,13.20
2022-09-14T22:49:48.950Z,13.20
2022-09-14T22:52:16.767Z,13.10
2022-09-14T22:54:44.450Z,13.20
2022-09-14T22:57:12.076Z,13.10
2022-09-14T22:59:39.634Z,13.00
2022-09-14T23:02:08.083Z,12.90
2022-09-14T23:04:43.418Z,13.00
2022-09-14T23:07:11.235Z,12.90
2022-09-14T23:09:43.742Z,12.90
2022-09-14T23:12:11.814Z,12.90
2022-09-14T23:14:39.326Z,12.90
2022-09-14T23:17:07.793Z,12.80
2022-09-14T23:19:43.598Z,12.90
2022-09-14T23:22:13.038Z,12.80
2022-09-14T23:24:41.222Z,12.70
2022-09-14T23:27:08.889Z,12.70
2022-09-14T23:29:36.856Z,12.70
2022-09-14T23:32:04.972Z,12.70
2022-09-14T23:34:33.347Z,12.60
2022-09-14T23:37:01.737Z,12.60
2022-09-14T23:39:29.610Z,12.50
2022-09-14T23:41:57.837Z,12.40
2022-09-14T23:44:28.915Z,12.40
2022-09-14T23:46:57.662Z,12.40
2022-09-14T23:49:25.954Z,12.30
2022-09-14T23:51:57.712Z,12.40
2022-09-14T23:54:29.499Z,12.30
2022-09-14T23:56:57.162Z,12.30
2022-09-14T23:59:25.074Z,12.30
